Arbovale, West Virginia
Current Conditions -  °F | °C
As of 3:51 PM on Tuesday 25 Nov 2014 (Local Time) from KEKN Reporting Station
Clear Clear  
Wind Chill: 50°   Ceiling: Unl
Heat Index: 50°   Visibility: 10mi
Dew Point: 25°   Wind: 6mph
Humidity: 38%   Direction: 280°W
Pressure: 30.04"   Gusts: NA
Location:  38.44°N, 79.82°W
Report Text: KEKN 252051Z AUTO 28005KT 10SM CLR 10/M04 A3004 RMK AO2 SLP181 T01001039 56009 TSNO
Loading
Personal Weather Stations






























Interactive Weather Map New forecast layout! Learn more

10-Day Weather Forecast

Advertisements
Track Severe Weather on mobile